Time;durP1;ratioP1;P1;durP2;ratioP2;P2;SDS_P1;SDS_P2;PMS_P1;PMS_P2;Temp;Humidity;BMP_temperature;BMP_pressure;BME280_temperature;BME280_humidity;BME280_pressure;Samples;Min_cycle;Max_cycle;Signal;HPM_P1;HPM_P2
2023/04/16 00:00:52;;;;;;;5.88;4.55;;;14.50;99.90;;;;;;4591807;19;20082;-30
2023/04/16 00:02:37;;;;;;;6.10;3.97;;;14.50;99.90;;;;;;4591838;19;20033;-30
2023/04/16 00:04:09;;;;;;;6.97;5.65;;;14.50;99.90;;;;;;4592422;19;20010;-31
2023/04/16 00:05:40;;;;;;;6.15;4.60;;;14.40;99.90;;;;;;4590884;19;20512;-30
2023/04/16 00:07:11;;;;;;;5.88;4.93;;;14.40;99.90;;;;;;4592001;19;20022;-30
2023/04/16 00:08:42;;;;;;;7.50;4.75;;;14.40;99.90;;;;;;4592063;19;20077;-31
2023/04/16 00:10:14;;;;;;;;;;;14.40;99.90;;;;;;4592412;19;20007;-30
2023/04/16 00:11:46;;;;;;;7.47;4.75;;;14.40;99.90;;;;;;4590844;19;19915;-30
2023/04/16 00:13:17;;;;;;;6.18;4.82;;;14.40;99.90;;;;;;4590411;19;20496;-31
2023/04/16 00:14:48;;;;;;;5.93;4.63;;;14.40;99.90;;;;;;4591163;19;20006;-30
2023/04/16 00:16:20;;;;;;;5.67;4.77;;;14.50;99.90;;;;;;4590138;19;20014;-30
2023/04/16 00:17:51;;;;;;;8.73;5.57;;;14.50;99.90;;;;;;4591534;19;20015;-30
2023/04/16 00:19:23;;;;;;;5.47;4.47;;;14.40;99.90;;;;;;4591041;19;20018;-30
2023/04/16 00:20:54;;;;;;;;;;;14.40;99.90;;;;;;4592690;19;20015;-31
2023/04/16 00:22:25;;;;;;;5.47;4.67;;;14.40;99.90;;;;;;4591066;19;19937;-30
2023/04/16 00:23:56;;;;;;;5.00;4.50;;;14.40;99.90;;;;;;4590335;19;20029;-30
2023/04/16 00:25:28;;;;;;;5.40;4.82;;;14.40;99.90;;;;;;4589550;19;20483;-30
2023/04/16 00:27:00;;;;;;;6.80;5.35;;;14.40;99.90;;;;;;4589688;19;20375;-30
2023/04/16 00:28:31;;;;;;;;;;;14.40;99.90;;;;;;4591110;19;20050;-31
2023/04/16 00:30:02;;;;;;;7.10;5.07;;;14.40;99.90;;;;;;4590140;19;19914;-30
2023/04/16 00:31:34;;;;;;;6.53;4.70;;;14.40;99.90;;;;;;4590167;19;20070;-30
2023/04/16 00:33:05;;;;;;;6.63;5.32;;;14.40;99.90;;;;;;4589788;19;20487;-30
2023/04/16 00:34:37;;;;;;;7.57;5.22;;;14.40;99.90;;;;;;4590319;19;20025;-30
2023/04/16 00:36:08;;;;;;;5.38;4.80;;;14.40;99.90;;;;;;4590987;19;20024;-30
2023/04/16 00:37:39;;;;;;;6.75;4.68;;;14.40;99.90;;;;;;4591397;19;20017;-30
2023/04/16 00:39:11;;;;;;;5.38;4.60;;;14.40;99.90;;;;;;4590601;19;20370;-30
2023/04/16 00:40:42;;;;;;;5.95;4.93;;;14.40;99.90;;;;;;4589701;19;20014;-30
2023/04/16 00:42:13;;;;;;;5.20;4.70;;;14.40;99.90;;;;;;4589920;19;20006;-30
2023/04/16 00:43:45;;;;;;;7.63;5.30;;;14.40;99.90;;;;;;4590369;19;20021;-30
2023/04/16 00:45:16;;;;;;;6.13;4.82;;;14.40;99.90;;;;;;4590802;19;20031;-30
2023/04/16 00:46:47;;;;;;;5.72;5.13;;;14.40;99.90;;;;;;4589019;19;20010;-30
2023/04/16 00:48:19;;;;;;;7.10;5.28;;;14.40;99.90;;;;;;4589097;19;20456;-30
2023/04/16 00:49:51;;;;;;;5.73;4.93;;;14.40;99.90;;;;;;4590907;19;20014;-30
2023/04/16 00:51:25;;;;;;;5.90;5.30;;;14.40;99.90;;;;;;4590775;19;20014;-30
2023/04/16 00:52:57;;;;;;;5.57;4.70;;;14.40;99.90;;;;;;4589396;19;20002;-30
2023/04/16 00:54:28;;;;;;;7.22;5.10;;;14.40;99.90;;;;;;4589885;19;20070;-30
2023/04/16 00:56:03;;;;;;;6.40;5.25;;;14.30;99.90;;;;;;4590672;19;20519;-30
2023/04/16 00:57:36;;;;;;;6.13;5.10;;;14.40;99.90;;;;;;4588892;19;20007;-30
2023/04/16 00:59:08;;;;;;;5.70;5.10;;;14.40;99.90;;;;;;4590226;19;20015;-30
2023/04/16 01:00:40;;;;;;;5.80;4.95;;;14.30;99.90;;;;;;4590391;19;20070;-30
2023/04/16 01:02:11;;;;;;;5.97;4.83;;;14.40;99.90;;;;;;4589138;19;20010;-30
2023/04/16 01:03:44;;;;;;;6.20;5.05;;;14.40;99.90;;;;;;4589844;19;20011;-30
2023/04/16 01:05:15;;;;;;;6.40;5.60;;;14.40;99.90;;;;;;4590638;19;20006;-30
2023/04/16 01:06:47;;;;;;;5.75;5.00;;;14.30;99.90;;;;;;4589948;19;20023;-30
2023/04/16 01:08:21;;;;;;;5.30;4.55;;;14.30;99.90;;;;;;4590169;19;20018;-30
2023/04/16 01:09:52;;;;;;;5.57;5.03;;;14.30;99.90;;;;;;4588617;19;20374;-30
2023/04/16 01:11:24;;;;;;;5.90;5.22;;;14.30;99.90;;;;;;4590235;19;20017;-31
2023/04/16 01:12:55;;;;;;;6.22;5.63;;;14.30;99.90;;;;;;4590105;19;20066;-30
2023/04/16 01:14:26;;;;;;;5.68;4.65;;;14.30;99.90;;;;;;4588638;19;20070;-30
2023/04/16 01:16:00;;;;;;;5.87;5.27;;;14.30;99.90;;;;;;4588990;19;20054;-30
2023/04/16 01:17:31;;;;;;;6.80;5.27;;;14.30;99.90;;;;;;4590439;19;20082;-30
2023/04/16 01:19:02;;;;;;;7.18;5.53;;;14.30;99.90;;;;;;4590370;19;20018;-30
2023/04/16 01:20:35;;;;;;;6.15;5.55;;;14.30;99.90;;;;;;4588490;19;20019;-30
2023/04/16 01:22:06;;;;;;;6.50;5.40;;;14.30;99.90;;;;;;4589679;19;20010;-30
2023/04/16 01:23:38;;;;;;;7.43;5.60;;;14.30;99.90;;;;;;4588168;19;20007;-30
2023/04/16 01:25:12;;;;;;;;;;;14.30;99.90;;;;;;4590268;19;20342;-30
2023/04/16 01:26:44;;;;;;;6.23;5.63;;;14.30;99.90;;;;;;4590015;19;19938;-30
2023/04/16 01:28:16;;;;;;;6.37;5.73;;;14.30;99.90;;;;;;4589614;19;20010;-30
2023/04/16 01:29:47;;;;;;;6.60;5.57;;;14.30;99.90;;;;;;4588825;19;20345;-30
2023/04/16 01:31:20;;;;;;;6.50;5.60;;;14.30;99.90;;;;;;4589406;19;20006;-30
2023/04/16 01:32:52;;;;;;;6.00;5.27;;;14.30;99.90;;;;;;4590048;19;20017;-31
2023/04/16 01:34:24;;;;;;;7.22;6.53;;;14.30;99.90;;;;;;4589085;19;20020;-30
2023/04/16 01:35:55;;;;;;;9.38;6.03;;;14.30;99.90;;;;;;4588624;19;20010;-31
2023/04/16 01:37:27;;;;;;;8.17;5.97;;;14.40;99.90;;;;;;4589180;19;20044;-31
2023/04/16 01:38:59;;;;;;;7.63;6.15;;;14.40;99.90;;;;;;4589689;19;20100;-31
2023/04/16 01:40:30;;;;;;;7.45;5.80;;;14.40;99.90;;;;;;4589436;19;20010;-30
2023/04/16 01:42:01;;;;;;;7.35;6.15;;;14.40;99.90;;;;;;4588490;19;20010;-29
2023/04/16 01:43:33;;;;;;;7.35;6.38;;;14.40;99.90;;;;;;4588684;19;20011;-30
2023/04/16 01:45:06;;;;;;;7.00;6.03;;;14.40;99.90;;;;;;4589970;19;20007;-30
2023/04/16 01:46:37;;;;;;;7.23;6.53;;;14.50;99.90;;;;;;4590213;19;20015;-30
2023/04/16 01:48:09;;;;;;;7.72;6.28;;;14.50;99.90;;;;;;4588038;19;20081;-30
2023/04/16 01:49:41;;;;;;;6.00;5.40;;;14.50;99.90;;;;;;4589122;19;20018;-31
2023/04/16 01:51:12;;;;;;;8.03;5.90;;;14.50;99.90;;;;;;4588637;19;20014;-30
2023/04/16 01:52:44;;;;;;;7.43;6.63;;;14.50;99.90;;;;;;4589469;19;20112;-30
2023/04/16 01:54:17;;;;;;;7.37;5.73;;;14.60;99.90;;;;;;4589336;19;20011;-31
2023/04/16 01:55:49;;;;;;;;;;;14.60;99.90;;;;;;4587982;19;20009;-31
2023/04/16 01:57:21;;;;;;;6.22;5.63;;;14.60;99.90;;;;;;4588811;19;19926;-31
2023/04/16 01:58:52;;;;;;;7.25;6.30;;;14.60;99.90;;;;;;4590294;19;20006;-30
2023/04/16 02:00:23;;;;;;;6.38;5.68;;;14.60;99.90;;;;;;4592407;19;20023;-30
2023/04/16 02:01:55;;;;;;;6.37;5.60;;;14.70;99.90;;;;;;4594414;19;20019;-31
2023/04/16 02:03:26;;;;;;;7.80;6.20;;;14.80;99.90;;;;;;4593138;19;20022;-31
2023/04/16 02:04:58;;;;;;;6.50;5.65;;;14.80;99.90;;;;;;4594412;19;20031;-31
2023/04/16 02:06:30;;;;;;;7.85;6.15;;;14.80;99.90;;;;;;4593671;19;20007;-30
2023/04/16 02:08:01;;;;;;;6.70;5.77;;;14.80;99.90;;;;;;4594078;19;20396;-31
2023/04/16 02:09:39;;;;;;;7.80;7.00;;;14.70;99.90;;;;;;4593079;19;20345;-31
2023/04/16 02:11:11;;;;;;;6.83;5.63;;;14.70;99.90;;;;;;4593379;19;20010;-31
2023/04/16 02:12:44;;;;;;;7.57;6.47;;;14.70;99.90;;;;;;4592487;19;20463;-31
2023/04/16 02:14:15;;;;;;;7.13;6.43;;;14.70;99.90;;;;;;4593174;19;20011;-31
2023/04/16 02:15:53;;;;;;;7.80;6.27;;;14.60;99.90;;;;;;4589732;19;20007;-30
2023/04/16 02:17:24;;;;;;;6.47;5.30;;;14.60;99.90;;;;;;4593294;19;20029;-31
2023/04/16 02:18:55;;;;;;;6.93;5.95;;;14.60;99.90;;;;;;4593674;19;20051;-30
2023/04/16 02:20:27;;;;;;;6.30;5.60;;;14.60;99.90;;;;;;4593784;19;20105;-31
2023/04/16 02:22:00;;;;;;;6.22;5.63;;;14.60;99.90;;;;;;4593985;19;20395;-31
2023/04/16 02:23:32;;;;;;;7.30;6.07;;;14.60;99.90;;;;;;4593367;19;20356;-31
2023/04/16 02:25:05;;;;;;;7.20;6.20;;;14.50;99.90;;;;;;4593592;19;20034;-31
2023/04/16 02:26:38;;;;;;;7.87;6.87;;;14.50;99.90;;;;;;4593443;19;20024;-31
2023/04/16 02:28:10;;;;;;;7.60;6.20;;;14.50;99.90;;;;;;4592878;19;20034;-31
2023/04/16 02:29:43;;;;;;;7.43;5.93;;;14.50;99.90;;;;;;4592916;19;20006;-31
2023/04/16 02:31:18;;;;;;;6.57;5.85;;;14.50;99.90;;;;;;4593814;19;20344;-31
2023/04/16 02:32:51;;;;;;;6.70;5.80;;;14.50;99.90;;;;;;4593411;19;20010;-31
2023/04/16 02:34:22;;;;;;;7.45;6.03;;;14.50;99.90;;;;;;4593743;19;20348;-31
2023/04/16 02:35:53;;;;;;;7.05;6.35;;;14.50;99.90;;;;;;4591832;19;20038;-31
2023/04/16 02:37:26;;;;;;;8.03;6.10;;;14.50;99.90;;;;;;4593243;19;20014;-31
2023/04/16 02:38:58;;;;;;;8.20;6.50;;;14.50;99.90;;;;;;4593671;19;20017;-31
2023/04/16 02:40:30;;;;;;;6.73;6.03;;;14.50;99.90;;;;;;4592304;19;20486;-30
2023/04/16 02:42:20;;;;;;;7.47;6.57;;;14.50;99.90;;;;;;4591035;19;20010;-30
2023/04/16 02:43:52;;;;;;;10.00;6.40;;;14.40;99.90;;;;;;4592339;19;20019;-30
2023/04/16 02:45:25;;;;;;;7.93;7.13;;;14.50;99.90;;;;;;4593341;19;20034;-31
2023/04/16 02:46:56;;;;;;;7.15;6.13;;;14.40;99.90;;;;;;4593436;19;20082;-30
2023/04/16 02:48:28;;;;;;;7.53;6.83;;;14.40;99.90;;;;;;4593331;19;20349;-31
2023/04/16 02:49:59;;;;;;;7.75;6.93;;;14.40;99.90;;;;;;4593205;19;20013;-31
2023/04/16 02:51:32;;;;;;;7.10;6.23;;;14.40;99.90;;;;;;4591450;19;20014;-30
2023/04/16 02:53:05;;;;;;;8.05;6.43;;;14.40;99.90;;;;;;4592869;19;20375;-30
2023/04/16 02:54:36;;;;;;;8.90;6.70;;;14.40;99.90;;;;;;4591298;19;20014;-31
2023/04/16 02:56:09;;;;;;;8.53;7.57;;;14.40;99.90;;;;;;4592622;19;20010;-30
2023/04/16 02:57:41;;;;;;;;;;;14.40;99.90;;;;;;4593813;19;20073;-30
2023/04/16 02:59:12;;;;;;;6.70;5.73;;;14.40;99.90;;;;;;4593337;19;19926;-30
2023/04/16 03:00:44;;;;;;;7.33;6.33;;;14.40;99.90;;;;;;4592684;19;20006;-30
2023/04/16 03:02:16;;;;;;;7.35;6.60;;;14.30;99.90;;;;;;4589875;19;20011;-31
2023/04/16 03:03:47;;;;;;;7.18;6.45;;;14.30;99.90;;;;;;4591998;19;20014;-30
2023/04/16 03:05:20;;;;;;;7.53;6.50;;;14.30;99.90;;;;;;4590570;19;20014;-31
2023/04/16 03:06:52;;;;;;;7.13;6.30;;;14.30;99.90;;;;;;4591710;19;20508;-30
2023/04/16 03:08:25;;;;;;;7.13;6.43;;;14.40;99.90;;;;;;4591884;19;20015;-30
2023/04/16 03:09:57;;;;;;;7.60;6.80;;;14.50;99.90;;;;;;4592012;19;20031;-31
2023/04/16 03:11:30;;;;;;;8.67;7.60;;;14.40;99.90;;;;;;4591266;19;20062;-31
2023/04/16 03:13:02;;;;;;;7.28;6.53;;;14.40;99.90;;;;;;4592280;19;20014;-31
2023/04/16 03:14:34;;;;;;;8.27;6.93;;;14.40;99.90;;;;;;4592719;19;20007;-31
2023/04/16 03:16:06;;;;;;;8.30;6.87;;;14.40;99.90;;;;;;4593406;19;20411;-31
2023/04/16 03:17:37;;;;;;;7.50;6.68;;;14.30;99.90;;;;;;4592181;19;20037;-31
2023/04/16 03:19:09;;;;;;;7.65;6.78;;;14.30;99.90;;;;;;4592769;19;20011;-31
2023/04/16 03:20:40;;;;;;;7.38;6.68;;;14.30;99.90;;;;;;4590140;19;20019;-31
2023/04/16 03:22:11;;;;;;;8.00;6.70;;;14.30;99.90;;;;;;4592467;19;20074;-31
2023/04/16 03:23:43;;;;;;;7.43;6.63;;;14.30;99.90;;;;;;4592120;19;20010;-30
2023/04/16 03:25:15;;;;;;;;;;;14.30;99.90;;;;;;4593808;19;20482;-31
2023/04/16 03:26:46;;;;;;;8.13;7.33;;;14.30;99.90;;;;;;4591522;19;19926;-31
2023/04/16 03:28:17;;;;;;;7.82;7.03;;;14.30;99.90;;;;;;4592462;19;20409;-31
2023/04/16 03:29:49;;;;;;;11.05;7.70;;;14.40;99.90;;;;;;4591487;19;20010;-31
2023/04/16 03:31:22;;;;;;;7.45;6.75;;;14.40;99.90;;;;;;4592548;19;20011;-31
2023/04/16 03:32:53;;;;;;;9.10;7.03;;;14.40;99.90;;;;;;4591405;19;20014;-31
2023/04/16 03:34:25;;;;;;;8.82;7.30;;;14.40;99.90;;;;;;4590919;19;20006;-31
2023/04/16 03:35:56;;;;;;;;;;;14.40;99.90;;;;;;4591538;19;20074;-31
2023/04/16 03:37:28;;;;;;;8.57;7.20;;;14.40;99.90;;;;;;4591584;19;20280;-31
2023/04/16 03:39:00;;;;;;;;;;;14.30;99.90;;;;;;4591910;19;20026;-31
2023/04/16 03:40:31;;;;;;;10.00;8.00;;;14.30;99.90;;;;;;4592125;19;20347;-31
2023/04/16 03:42:03;;;;;;;9.00;8.10;;;14.30;99.90;;;;;;4592372;19;20026;-30
2023/04/16 03:43:35;;;;;;;7.70;6.90;;;14.30;99.90;;;;;;4592350;19;20344;-31
2023/04/16 03:45:08;;;;;;;8.45;7.55;;;14.30;99.90;;;;;;4590440;19;20083;-31
2023/04/16 03:46:39;;;;;;;9.07;7.60;;;14.30;99.90;;;;;;4591645;19;20018;-31
2023/04/16 03:48:12;;;;;;;11.27;9.20;;;14.30;99.90;;;;;;4591658;19;20476;-31
2023/04/16 03:49:45;;;;;;;9.43;8.13;;;14.30;99.90;;;;;;4591939;19;20010;-31
2023/04/16 03:51:16;;;;;;;9.88;8.63;;;14.30;99.90;;;;;;4592380;19;20023;-31
2023/04/16 03:52:52;;;;;;;11.37;7.83;;;14.30;99.90;;;;;;4590455;19;20027;-31
2023/04/16 03:54:25;;;;;;;9.93;8.37;;;14.30;99.90;;;;;;4591925;19;20014;-31
2023/04/16 03:55:58;;;;;;;8.70;7.80;;;14.30;99.90;;;;;;4590278;19;20011;-31
2023/04/16 03:57:29;;;;;;;10.00;9.00;;;14.30;99.90;;;;;;4592321;19;20017;-31
2023/04/16 03:59:00;;;;;;;10.18;8.98;;;14.30;99.90;;;;;;4591561;19;20018;-31
2023/04/16 04:00:31;;;;;;;10.55;9.10;;;14.30;99.90;;;;;;4592004;19;20030;-31
2023/04/16 04:02:03;;;;;;;10.67;9.57;;;14.30;99.90;;;;;;4591191;19;20018;-30
2023/04/16 04:03:36;;;;;;;9.50;8.55;;;14.30;99.90;;;;;;4592388;19;20009;-31
2023/04/16 04:05:08;;;;;;;11.37;9.77;;;14.20;99.90;;;;;;4591258;19;20025;-31
2023/04/16 04:06:40;;;;;;;10.70;9.20;;;14.20;99.90;;;;;;4592185;19;20014;-31
2023/04/16 04:08:13;;;;;;;10.80;9.00;;;14.30;99.90;;;;;;4590788;19;20002;-31
2023/04/16 04:09:44;;;;;;;10.20;8.50;;;14.30;99.90;;;;;;4591103;19;20014;-31
2023/04/16 04:11:16;;;;;;;10.88;9.27;;;14.30;99.90;;;;;;4591653;19;20015;-31
2023/04/16 04:12:47;;;;;;;10.77;9.65;;;14.20;99.90;;;;;;4591017;19;20002;-31
2023/04/16 04:14:18;;;;;;;11.77;10.38;;;14.20;99.90;;;;;;4591769;19;20021;-31
2023/04/16 04:15:50;;;;;;;12.03;9.70;;;14.20;99.90;;;;;;4589432;19;20089;-31
2023/04/16 04:17:21;;;;;;;13.00;9.15;;;14.30;99.90;;;;;;4591858;19;20011;-31
2023/04/16 04:18:54;;;;;;;12.75;10.27;;;14.30;99.90;;;;;;4591441;19;20085;-31
2023/04/16 04:20:26;;;;;;;10.87;9.27;;;14.30;99.90;;;;;;4591933;19;20009;-31
2023/04/16 04:21:57;;;;;;;11.38;9.80;;;14.30;99.90;;;;;;4591320;19;20014;-31
2023/04/16 04:23:29;;;;;;;14.05;9.43;;;14.20;99.90;;;;;;4588929;19;20368;-30
2023/04/16 04:25:02;;;;;;;13.10;10.80;;;14.30;99.90;;;;;;4590624;19;20511;-30
2023/04/16 04:26:33;;;;;;;12.23;9.05;;;14.30;99.90;;;;;;4591360;19;20010;-31
2023/04/16 04:28:08;;;;;;;11.73;9.27;;;14.20;99.90;;;;;;4590501;19;20018;-31
2023/04/16 04:29:41;;;;;;;10.40;9.18;;;14.30;99.90;;;;;;4590916;19;20026;-31
2023/04/16 04:31:12;;;;;;;10.60;9.50;;;14.30;99.90;;;;;;4589823;19;20827;-31
2023/04/16 04:32:43;;;;;;;10.23;9.02;;;14.40;99.90;;;;;;4590486;19;20078;-31
2023/04/16 04:34:15;;;;;;;12.02;9.00;;;14.40;99.90;;;;;;4590460;19;20015;-31
2023/04/16 04:35:47;;;;;;;10.65;8.27;;;14.40;99.90;;;;;;4588715;19;20014;-31
2023/04/16 04:37:18;;;;;;;12.45;9.65;;;14.40;99.90;;;;;;4589762;19;20024;-31
2023/04/16 04:38:49;;;;;;;13.95;10.07;;;14.40;99.90;;;;;;4592045;19;20466;-31
2023/04/16 04:40:21;;;;;;;12.45;9.60;;;14.40;99.90;;;;;;4591815;19;20356;-31
2023/04/16 04:41:52;;;;;;;10.73;9.63;;;14.40;99.90;;;;;;4590155;19;20553;-30
2023/04/16 04:43:24;;;;;;;12.70;9.68;;;14.40;99.90;;;;;;4591613;19;20015;-31
2023/04/16 04:44:55;;;;;;;15.00;9.20;;;14.40;99.90;;;;;;4590269;19;20014;-31
2023/04/16 04:46:26;;;;;;;10.88;9.60;;;14.40;99.90;;;;;;4589268;19;20025;-31
2023/04/16 04:47:58;;;;;;;;;;;14.40;99.90;;;;;;4591070;19;20361;-31
2023/04/16 04:49:30;;;;;;;11.67;9.70;;;14.40;99.90;;;;;;4589409;19;19915;-31
2023/04/16 04:51:03;;;;;;;12.82;10.02;;;14.40;99.90;;;;;;4586929;19;20349;-31
2023/04/16 04:52:34;;;;;;;13.77;9.52;;;14.40;99.90;;;;;;4588269;19;20025;-31
2023/04/16 04:54:05;;;;;;;11.90;9.60;;;14.40;99.90;;;;;;4591854;19;20015;-31
2023/04/16 04:55:37;;;;;;;11.60;8.95;;;14.40;99.90;;;;;;4588985;19;20011;-31
2023/04/16 04:57:09;;;;;;;11.60;9.57;;;14.40;99.90;;;;;;4589125;19;20015;-31
2023/04/16 04:58:40;;;;;;;11.10;9.45;;;14.40;99.90;;;;;;4589780;19;20030;-31
2023/04/16 05:00:12;;;;;;;11.77;8.70;;;14.40;99.90;;;;;;4590101;19;20089;-31
2023/04/16 05:01:43;;;;;;;12.50;8.35;;;14.40;99.90;;;;;;4589226;19;20018;-31
2023/04/16 05:03:19;;;;;;;11.18;8.48;;;14.40;99.90;;;;;;4589173;19;20015;-31
2023/04/16 05:04:50;;;;;;;10.63;8.52;;;14.40;99.90;;;;;;4589366;19;20010;-31
2023/04/16 05:06:22;;;;;;;10.18;8.48;;;14.40;99.90;;;;;;4589397;19;20032;-31
2023/04/16 05:07:53;;;;;;;11.02;8.57;;;14.40;99.90;;;;;;4588709;19;20018;-31
2023/04/16 05:09:24;;;;;;;12.25;8.55;;;14.40;99.90;;;;;;4591368;19;20015;-31
2023/04/16 05:10:56;;;;;;;12.60;8.80;;;14.40;99.90;;;;;;4587760;19;20018;-31
2023/04/16 05:12:27;;;;;;;13.70;9.73;;;14.40;99.90;;;;;;4589971;19;20014;-31
2023/04/16 05:13:59;;;;;;;11.50;8.32;;;14.30;99.90;;;;;;4589373;19;20007;-31
2023/04/16 05:15:30;;;;;;;12.38;9.15;;;14.30;99.90;;;;;;4588187;19;20014;-31
2023/04/16 05:17:02;;;;;;;12.25;8.98;;;14.30;99.90;;;;;;4587363;19;20031;-31
2023/04/16 05:18:33;;;;;;;12.35;8.82;;;14.30;99.90;;;;;;4588586;19;20459;-31
2023/04/16 05:20:05;;;;;;;12.95;8.93;;;14.30;99.90;;;;;;4591011;19;20011;-31
2023/04/16 05:21:36;;;;;;;14.10;9.45;;;14.30;99.90;;;;;;4589167;19;20023;-31
2023/04/16 05:23:07;;;;;;;11.90;8.70;;;14.40;99.90;;;;;;4590091;19;20353;-31
2023/04/16 05:24:39;;;;;;;12.38;8.75;;;14.30;99.90;;;;;;4589253;19;20019;-31
2023/04/16 05:26:10;;;;;;;11.68;9.50;;;14.30;99.90;;;;;;4589571;19;20463;-31
2023/04/16 05:27:59;;;;;;;11.55;8.52;;;14.30;99.90;;;;;;4588734;19;20470;-31
2023/04/16 05:29:31;;;;;;;13.27;9.20;;;14.30;99.90;;;;;;4589356;19;20011;-31
2023/04/16 05:31:02;;;;;;;14.00;9.95;;;14.30;99.90;;;;;;4587563;19;20015;-31
2023/04/16 05:32:33;;;;;;;11.90;8.60;;;14.30;99.90;;;;;;4588380;19;20031;-31
2023/04/16 05:34:04;;;;;;;10.90;8.90;;;14.30;99.90;;;;;;4587670;19;20021;-31
2023/04/16 05:35:35;;;;;;;12.18;8.48;;;14.30;99.90;;;;;;4586832;19;20010;-31
2023/04/16 05:37:07;;;;;;;13.75;9.23;;;14.40;99.90;;;;;;4590721;19;20354;-31
2023/04/16 05:38:38;;;;;;;;;;;14.30;99.90;;;;;;4588633;19;20038;-31
2023/04/16 05:40:12;;;;;;;11.87;8.70;;;14.30;99.90;;;;;;4589024;19;19933;-31
2023/04/16 05:41:43;;;;;;;11.50;8.57;;;14.30;99.90;;;;;;4589370;19;20014;-30
2023/04/16 05:43:15;;;;;;;11.90;9.48;;;14.30;99.90;;;;;;4589860;19;20484;-31
2023/04/16 05:44:46;;;;;;;10.73;8.10;;;14.30;99.90;;;;;;4588894;19;20014;-31
2023/04/16 05:46:17;;;;;;;12.45;8.43;;;14.20;99.90;;;;;;4588313;19;20010;-31
2023/04/16 05:47:49;;;;;;;11.05;9.40;;;14.20;99.90;;;;;;4588540;19;20063;-30
2023/04/16 05:49:21;;;;;;;12.70;8.93;;;14.20;99.90;;;;;;4587436;19;20379;-31
2023/04/16 05:50:52;;;;;;;;;;;14.20;99.90;;;;;;4587743;19;20395;-31
2023/04/16 05:52:24;;;;;;;10.75;9.00;;;14.20;99.90;;;;;;4590036;19;20259;-31
2023/04/16 05:53:55;;;;;;;11.60;8.77;;;14.20;99.90;;;;;;4590330;19;20011;-31
2023/04/16 05:55:26;;;;;;;14.10;9.95;;;14.20;99.90;;;;;;4587733;19;20039;-31
2023/04/16 05:56:59;;;;;;;;;;;14.20;99.90;;;;;;4590326;19;20019;-31
2023/04/16 05:58:31;;;;;;;13.10;9.00;;;14.20;99.90;;;;;;4589084;19;20320;-31
2023/04/16 06:00:02;;;;;;;13.52;9.77;;;14.20;99.90;;;;;;4587544;19;20361;-31
2023/04/16 06:01:34;;;;;;;;;;;14.20;99.90;;;;;;4588342;19;20051;-31
2023/04/16 06:03:05;;;;;;;14.23;9.80;;;14.20;99.90;;;;;;4587005;19;19922;-31
2023/04/16 06:04:36;;;;;;;12.75;9.98;;;14.20;99.90;;;;;;4587021;19;20399;-31
2023/04/16 06:06:08;;;;;;;11.13;8.98;;;14.20;99.90;;;;;;4587519;19;20073;-31
2023/04/16 06:07:39;;;;;;;12.25;9.25;;;14.20;99.90;;;;;;4590048;19;20007;-31
2023/04/16 06:09:10;;;;;;;12.48;8.90;;;14.20;99.90;;;;;;4589575;19;20014;-31
2023/04/16 06:10:42;;;;;;;12.00;9.25;;;14.30;99.90;;;;;;4587648;19;20136;-31
2023/04/16 06:12:13;;;;;;;11.35;8.70;;;14.20;99.90;;;;;;4587573;19;20023;-31
2023/04/16 06:13:44;;;;;;;11.15;8.50;;;14.20;99.90;;;;;;4587944;19;20019;-31
2023/04/16 06:15:16;;;;;;;;;;;14.30;99.90;;;;;;4587517;19;20014;-31
2023/04/16 06:16:47;;;;;;;9.97;8.20;;;14.30;99.90;;;;;;4586751;19;19922;-31
2023/04/16 06:18:18;;;;;;;13.40;9.43;;;14.30;99.90;;;;;;4589598;19;20022;-31
2023/04/16 06:19:49;;;;;;;10.05;7.85;;;14.20;99.90;;;;;;4589728;19;20030;-31
2023/04/16 06:21:21;;;;;;;11.20;7.88;;;14.20;99.90;;;;;;4587976;19;20019;-31
2023/04/16 06:22:52;;;;;;;12.57;9.13;;;14.30;99.90;;;;;;4589022;19;20015;-30
2023/04/16 06:24:23;;;;;;;10.50;7.60;;;14.20;99.90;;;;;;4585412;19;20038;-31
2023/04/16 06:25:54;;;;;;;10.27;7.97;;;14.20;99.90;;;;;;4585299;19;20361;-31
2023/04/16 06:27:26;;;;;;;10.57;8.30;;;14.20;99.90;;;;;;4587912;19;20021;-31
2023/04/16 06:28:57;;;;;;;11.55;8.68;;;14.20;99.90;;;;;;4587362;19;20546;-31
2023/04/16 06:30:29;;;;;;;13.20;8.85;;;14.30;99.90;;;;;;4583390;19;20459;-31
2023/04/16 06:32:02;;;;;;;12.20;8.18;;;14.20;99.90;;;;;;4588747;19;20394;-31
2023/04/16 06:33:36;;;;;;;13.18;9.07;;;14.30;99.90;;;;;;4590434;19;20011;-30
2023/04/16 06:35:07;;;;;;;10.55;8.23;;;14.30;99.90;;;;;;4587715;19;20033;-31
2023/04/16 06:36:38;;;;;;;11.75;9.27;;;14.30;99.90;;;;;;4586583;19;20079;-31
2023/04/16 06:38:10;;;;;;;12.68;9.68;;;14.30;99.90;;;;;;4588288;19;20010;-31
2023/04/16 06:39:41;;;;;;;12.82;9.10;;;14.30;99.90;;;;;;4588222;19;20019;-31
2023/04/16 06:41:13;;;;;;;17.00;12.13;;;14.30;99.90;;;;;;4587736;19;20018;-31
2023/04/16 06:42:44;;;;;;;16.00;12.23;;;14.30;99.90;;;;;;4586839;19;20015;-31
2023/04/16 06:44:15;;;;;;;18.23;14.05;;;14.30;99.90;;;;;;4587350;19;20011;-31
2023/04/16 06:45:47;;;;;;;17.08;11.20;;;14.20;99.90;;;;;;4586411;19;20475;-31
2023/04/16 06:47:18;;;;;;;33.50;25.60;;;14.30;99.90;;;;;;4592111;19;20356;-31
2023/04/16 06:48:50;;;;;;;21.25;16.83;;;14.30;99.90;;;;;;4593768;19;20018;-31
2023/04/16 06:50:22;;;;;;;24.63;21.92;;;14.30;99.90;;;;;;4592913;19;20022;-31
2023/04/16 06:51:53;;;;;;;22.10;17.48;;;14.30;99.90;;;;;;4592531;19;20011;-31
2023/04/16 06:53:25;;;;;;;17.70;15.05;;;14.30;99.90;;;;;;4592327;19;20051;-31
2023/04/16 06:54:56;;;;;;;16.10;13.63;;;14.30;99.90;;;;;;4591744;19;20023;-31
2023/04/16 06:56:27;;;;;;;14.65;11.95;;;14.30;99.90;;;;;;4591739;19;20014;-30
2023/04/16 06:57:59;;;;;;;14.82;12.85;;;14.30;99.90;;;;;;4591780;19;20325;-30
2023/04/16 06:59:30;;;;;;;17.55;14.52;;;14.30;99.90;;;;;;4590848;19;20389;-31
2023/04/16 07:01:02;;;;;;;18.47;16.37;;;14.30;99.90;;;;;;4590786;19;20019;-31
2023/04/16 07:02:33;;;;;;;19.48;13.18;;;14.20;99.90;;;;;;4592065;19;20378;-31
2023/04/16 07:04:05;;;;;;;19.35;16.73;;;14.20;99.90;;;;;;4592825;19;20038;-31
2023/04/16 07:05:36;;;;;;;17.50;12.98;;;14.20;99.90;;;;;;4593625;19;20027;-30
2023/04/16 07:07:07;;;;;;;15.52;12.63;;;14.20;99.90;;;;;;4590453;19;20119;-31
2023/04/16 07:08:39;;;;;;;19.38;12.38;;;14.30;99.90;;;;;;4590335;19;20110;-30
2023/04/16 07:10:11;;;;;;;16.13;12.05;;;14.20;99.90;;;;;;4591328;19;20486;-30
2023/04/16 07:11:43;;;;;;;17.38;13.27;;;14.20;99.90;;;;;;4592012;19;20021;-31
2023/04/16 07:13:15;;;;;;;16.23;11.77;;;14.20;99.90;;;;;;4592909;19;20006;-31
2023/04/16 07:14:46;;;;;;;16.10;12.38;;;14.20;99.90;;;;;;4592787;19;20033;-31
2023/04/16 07:16:18;;;;;;;16.20;12.50;;;14.20;99.90;;;;;;4591319;19;20026;-31
2023/04/16 07:17:49;;;;;;;19.25;14.73;;;14.20;99.90;;;;;;4592607;19;20033;-31
2023/04/16 07:19:21;;;;;;;20.85;15.85;;;14.20;99.90;;;;;;4592828;19;20026;-31
2023/04/16 07:20:53;;;;;;;17.20;13.50;;;14.20;99.90;;;;;;4588219;19;20022;-31
2023/04/16 07:22:24;;;;;;;18.48;13.82;;;14.20;99.90;;;;;;4593347;19;20010;-31
2023/04/16 07:23:56;;;;;;;;;;;14.30;99.90;;;;;;4591705;19;20156;-30
2023/04/16 07:25:27;;;;;;;20.98;17.90;;;14.30;99.90;;;;;;4591133;19;20511;-30
2023/04/16 07:26:59;;;;;;;22.65;17.80;;;14.30;99.90;;;;;;4591004;19;20013;-30
2023/04/16 07:28:31;;;;;;;16.88;13.95;;;14.40;99.90;;;;;;4593209;19;20010;-30
2023/04/16 07:30:04;;;;;;;23.58;21.00;;;14.40;99.90;;;;;;4593349;19;20025;-31
2023/04/16 07:31:36;;;;;;;22.95;20.55;;;14.40;99.90;;;;;;4591270;19;20014;-30
2023/04/16 07:33:07;;;;;;;21.20;18.20;;;14.40;99.90;;;;;;4591005;19;20019;-31
2023/04/16 07:34:39;;;;;;;18.67;14.73;;;14.40;99.90;;;;;;4591782;19;20019;-31
2023/04/16 07:36:11;;;;;;;15.35;11.07;;;14.50;99.90;;;;;;4589992;19;20019;-30
2023/04/16 07:37:42;;;;;;;;;;;14.50;99.90;;;;;;4591730;19;20023;-30
2023/04/16 07:39:13;;;;;;;16.43;11.97;;;14.50;99.90;;;;;;4589283;19;19918;-31
2023/04/16 07:40:45;;;;;;;15.38;11.27;;;14.60;99.90;;;;;;4589055;19;20018;-30
2023/04/16 07:42:17;;;;;;;19.73;14.23;;;14.60;99.90;;;;;;4591685;19;20037;-30
2023/04/16 07:43:48;;;;;;;14.80;11.95;;;14.60;99.90;;;;;;4592681;19;20013;-30
2023/04/16 07:45:21;;;;;;;19.90;14.77;;;14.70;99.90;;;;;;4592640;19;20022;-31
2023/04/16 07:46:52;;;;;;;18.52;12.55;;;14.70;99.90;;;;;;4592323;19;20010;-30
2023/04/16 07:48:24;;;;;;;14.98;11.32;;;14.70;99.90;;;;;;4592003;19;20011;-30
2023/04/16 07:49:55;;;;;;;16.17;11.93;;;14.70;99.90;;;;;;4589271;19;20035;-30
2023/04/16 07:51:27;;;;;;;;;;;14.70;99.90;;;;;;4590692;19;20080;-31
2023/04/16 07:52:58;;;;;;;16.48;10.65;;;14.70;99.90;;;;;;4591057;19;20248;-30
2023/04/16 07:54:31;;;;;;;16.13;12.25;;;14.70;99.90;;;;;;4590301;19;20014;-31
2023/04/16 07:56:03;;;;;;;16.33;13.50;;;14.70;99.90;;;;;;4589437;19;20021;-31
2023/04/16 07:57:34;;;;;;;15.98;12.10;;;14.60;99.90;;;;;;4589762;19;20021;-31